Flight Track Log - Related Links

Times and Time Zones

All times are in EDT time to prevent confusion due to time zone crossing. See the TCF6008 flight status page for this flight to view local times or setup timezone preferences in your user account.

Time Position Orientation Groundspeed Altitude Reporting Facility
EDT Latitude Longitude Course Direction KTS MPH feet Rate Location/Type
Thu 06:46:16 PM 42.9500 -87.8708 131° Southeast 135 155 31,000  Level Chicago Center
Thu 06:47:18 PM 42.9192 -87.8219 131° Southeast 184 212 3,800 -12,435 Descending Chicago Center
Thu 06:48:20 PM 42.8650 -87.7725 146° Southeast 221 254 5,300 2,177 Climbing Chicago Center
Thu 06:49:22 PM 42.7950 -87.7608 173° South 244 281 8,300 2,565 Climbing Chicago Center
Thu 06:50:24 PM 42.7239 -87.7522 175° South 253 291 10,600 2,274 Climbing Chicago Center
Thu 06:51:26 PM 42.6508 -87.7439 175° South 260 299 13,000 2,177 Climbing Chicago Center
Thu 06:52:28 PM 42.5778 -87.7233 168° South 261 300 15,100 1,584 Climbing Chicago Center
Thu 06:53:31 PM 42.5072 -87.6892 160° South 266 306 16,300 1,008 Climbing Chicago Center
Thu 06:54:33 PM 42.4139 -87.6511 163° South 292 336 17,200 1,306 Climbing Chicago Center
Thu 06:55:35 PM 42.3292 -87.6133 162° South 316 364 19,000 1,452 Climbing Chicago Center
Thu 06:56:37 PM 42.2619 -87.5381 140° Southeast 335 386 20,200 1,500 Climbing Chicago Center
Thu 06:57:39 PM 42.2450 -87.4000 99° East 371 427 22,100 1,645 Climbing Chicago Center
Thu 06:58:41 PM 42.2350 -87.2542 95° East 387 445 23,600 1,452 Climbing Chicago Center
Thu 06:59:43 PM 42.2244 -87.1078 96° East 392 451 25,100 1,597 Climbing Chicago Center
Thu 07:00:45 PM 42.2114 -86.9286 96° East 399 459 26,900 1,548 Climbing Chicago Center
Thu 07:01:47 PM 42.2003 -86.7786 96° East 403 464 28,300 1,392 Climbing Chicago Center
Thu 07:02:50 PM 42.1886 -86.6186 96° East 410 472 29,800 1,296 Climbing Chicago Center
Thu 07:03:52 PM 42.1772 -86.4697 96° East 403 464 31,000 581 Climbing Chicago Center
Thu 07:04:54 PM 42.1639 -86.3150 97° East 412 474 31,000  Level Chicago Center
Thu 07:05:56 PM 42.1511 -86.1472 96° East 445 512 31,000  Level Chicago Center
Thu 07:06:58 PM 42.1350 -85.9478 96° East 466 536 31,000  Level Chicago Center
Thu 07:08:00 PM 42.1203 -85.7750 96° East 475 547 31,000  Level Chicago Center
Thu 07:09:02 PM 42.1058 -85.5992 96° East 476 548 31,000  Level Chicago Center
Thu 07:10:04 PM 42.0900 -85.4208 97° East 482 555 31,000  Level Chicago Center
Thu 07:10:21 PM 42.0878 -85.3600 93° East 484 557 31,000  Level Cleveland Center
Thu 07:11:21 PM 42.0719 -85.1853 97° East 484 557 31,000  Level Cleveland Center
Thu 07:12:21 PM 42.0542 -84.9994 97° East 484 557 31,000  Level Cleveland Center
Thu 07:13:21 PM 42.0381 -84.8192 97° East 489 563 31,000  Level Cleveland Center
Thu 07:14:21 PM 42.0217 -84.6392 97° East 489 563 31,000  Level Cleveland Center
Thu 07:15:21 PM 42.0050 -84.4536 97° East 489 563 31,000  Level Cleveland Center
Thu 07:16:21 PM 41.9783 -84.2508 100° East 489 563 31,000  Level Cleveland Center
Thu 07:17:21 PM 41.9611 -84.0683 97° East 484 557 31,000  Level Cleveland Center
Thu 07:18:21 PM 41.9414 -83.8886 98° East 489 563 31,000  Level Cleveland Center
Thu 07:19:21 PM 41.9236 -83.7033 97° East 489 563 31,000  Level Cleveland Center
Thu 07:20:21 PM 41.9036 -83.5183 98° East 489 563 31,000  Level Cleveland Center
Thu 07:21:21 PM 41.8872 -83.3361 97° East 489 563 31,000  Level Cleveland Center
Thu 07:22:21 PM 41.8667 -83.1511 98° East 489 563 31,000  Level Cleveland Center
Thu 07:23:21 PM 41.8456 -82.9664 99° East 494 568 31,000  Level Cleveland Center
Thu 07:24:21 PM 41.8244 -82.7761 98° East 499 574 31,000  Level Cleveland Center
Thu 07:25:21 PM 41.8050 -82.5861 98° East 505 581 31,000  Level Cleveland Center
Thu 07:26:21 PM 41.7831 -82.3986 99° East 505 581 31,000  Level Cleveland Center
Thu 07:27:21 PM 41.7628 -82.2117 98° East 505 581 31,000  Level Cleveland Center
Thu 07:28:21 PM 41.7403 -82.0192 99° East 505 581 31,000  Level Cleveland Center
Thu 07:29:21 PM 41.7175 -81.8322 99° East 510 587 31,000  Level Cleveland Center
Thu 07:30:21 PM 41.6944 -81.6425 99° East 510 587 31,000  Level Cleveland Center
Thu 07:31:21 PM 41.6711 -81.4558 99° East 510 587 31,000  Level Cleveland Center
Thu 07:32:21 PM 41.6514 -81.2833 99° East 510 587 31,000  Level Cleveland Center
Thu 07:33:21 PM 41.6275 -81.0914 99° East 515 593 31,000  Level Cleveland Center
Thu 07:34:21 PM 41.6031 -80.9025 100° East 515 593 31,000  Level Cleveland Center
Thu 07:35:21 PM 41.5783 -80.7108 100° East 520 598 31,000  Level Cleveland Center
Thu 07:36:21 PM 41.5536 -80.5278 100° East 520 598 31,000  Level Cleveland Center
Thu 07:37:21 PM 41.5325 -80.3392 98° East 515 593 31,000  Level Cleveland Center
Thu 07:38:21 PM 41.5047 -80.1478 101° East 515 593 31,000  Level Cleveland Center
Thu 07:39:21 PM 41.4767 -79.9431 100° East 515 593 31,000  Level Cleveland Center
Thu 07:40:21 PM 41.4506 -79.7575 101° East 515 593 31,000  Level Cleveland Center
Thu 07:41:21 PM 41.4239 -79.5725 101° East 515 593 31,000  Level Cleveland Center
Thu 07:42:21 PM 41.3994 -79.3983 101° East 521 600 31,000  Level Cleveland Center
Thu 07:43:21 PM 41.3722 -79.2106 101° East 521 600 31,000  Level Cleveland Center
Thu 07:44:21 PM 41.3450 -79.0261 101° East 521 600 31,000  Level Cleveland Center
Thu 07:45:21 PM 41.3214 -78.8414 100° East 516 594 31,000  Level Cleveland Center
Thu 07:46:21 PM 41.2933 -78.6542 101° East 516 594 31,000  Level Cleveland Center
Thu 07:48:28 PM 41.2333 -78.2564 101° East 516 594 31,000  Level New York Center
Thu 07:49:28 PM 41.2031 -78.0711 102° East 516 594 31,000  Level New York Center
Thu 07:50:29 PM 41.1811 -77.8839 99° East 510 587 31,000  Level New York Center
Thu 07:51:29 PM 41.1589 -77.6994 99° East 510 587 31,000  Level New York Center
Thu 07:52:30 PM 41.1342 -77.5125 100° East 510 587 31,000  Level New York Center
Thu 07:53:30 PM 41.1111 -77.3283 99° East 510 587 31,000 -51 Level New York Center
Thu 07:54:27 PM 41.0858 -77.1414 100° East 505 581 30,900 -1,322 Descending New York Center
Thu 07:55:28 PM 41.0603 -76.9544 100° East 511 588 28,400 -2,557 Descending New York Center
Thu 07:56:29 PM 41.0364 -76.7736 100° East 506 582 25,700 -2,579 Descending New York Center
Thu 07:57:29 PM 41.0053 -76.6031 104° East 489 563 23,200 -2,479 Descending New York Center
Thu 07:58:30 PM 40.9653 -76.4403 108° East 479 551 20,700 -2,479 Descending New York Center
Thu 07:59:30 PM 40.9275 -76.2694 106° East 448 516 18,200 -1,373 Descending New York Center
Thu 08:00:28 PM 40.8906 -76.1183 108° East 433 498 18,000 -1,128 Descending New York Center
Thu 08:01:27 PM 40.8556 -75.9700 107° East 433 498 16,000 -2,050 Descending New York Center
Thu 08:02:28 PM 40.8217 -75.8386 109° East 427 491 13,900 -1,550 Descending New York Center
Thu 08:03:27 PM 40.7844 -75.6822 107° East 407 468 12,900 -500 Descending New York Center
Thu 08:04:28 PM 40.7486 -75.5428 109° East 401 461 12,900  Level New York Center
Thu 08:05:28 PM 40.7122 -75.4061 109° East 401 461 12,900  Level New York Center
Thu 08:06:29 PM 40.6633 -75.2714 116° Southeast 396 456 12,900 -550 Level New York Center
Thu 08:07:28 PM 40.6181 -75.1453 115° Southeast 391 450 11,800 -1,500 Descending New York Center
Thu 08:08:29 PM 40.5725 -75.0222 116° Southeast 385 443 9,900 -958 Descending New York Center
Thu 08:09:27 PM 40.5353 -74.8972 111° Southeast 373 429 9,900 65 Level New York Center
Thu 08:10:01 PM 40.5167 -74.8167 107° East 378 435 10,000 64 Climbing New York TRACON
Thu 08:11:01 PM 40.4667 -74.7000 119° Southeast 373 429 10,000  Level New York TRACON
Thu 08:12:01 PM 40.4333 -74.5667 108° East 377 434 10,000  Level New York TRACON
Thu 08:13:01 PM 40.4500 -74.4333 81° East 355 409 10,000 -800 Level New York TRACON
Thu 08:14:01 PM 40.4833 -74.3167 69° East 326 375 8,400 -1,450 Descending New York TRACON
Thu 08:15:01 PM 40.5167 -74.2167 66° East 308 354 7,100 -850 Descending New York TRACON
Thu 08:16:01 PM 40.5333 -74.1167 78° East 263 303 6,700 -800 Descending New York TRACON
Thu 08:17:01 PM 40.5833 -74.0667 37° Northeast 246 283 5,500 -895 Descending New York TRACON
Thu 08:19:02 PM 40.7167 -74.0500 North 219 252 4,000 -423 Descending New York TRACON
Thu 08:21:02 PM 40.8333 -73.9833 23° Northeast 217 250 3,800 -300 Descending New York TRACON
Thu 08:22:02 PM 40.8833 -73.9500 27° Northeast 200 230 3,100 -550 Descending New York TRACON
Thu 08:23:02 PM 40.9167 -73.9000 49° Northeast 169 194 2,700 -550 Descending New York TRACON
Thu 08:24:02 PM 40.9333 -73.8500 66° East 177 204 2,000 -350 Descending New York TRACON
Thu 08:25:02 PM 40.9167 -73.8000 114° Southeast 147 169 2,000  Level New York TRACON
Thu 08:26:02 PM 40.8667 -73.8000 180° South 162 186 2,000 -450 Level New York TRACON
Thu 08:27:02 PM 40.8333 -73.8333 217° Southwest 151 174 1,100 -850 Descending New York TRACON
Thu 08:28:02 PM 40.8000 -73.8667 217° Southwest 149 171 300 -800 Descending New York TRACON
Thu 08:30:00 PM 40.7772 -73.8726 150° Southeast  Level Estimated
Thu 08:37:00 PM 40.7772 -73.8726 150° Southeast  Level Estimated

Login

Don't have an account? Register now (free) for customized features, flight alerts, and more!